KRKP/RKP METAR and TAF weather

Enter ICAO airport designator
Station Type Date Time Source
KRKP METAR 2021/07/26 13:53 UTC NOAA

KRKP 261353Z AUTO 17006KT 10SM FEW018 30/25 A2996 RMK AO2 SLP147 T03000250


Station Type Date Time Source
KRKP Decoded METAR 2021/07/26 13:53 UTC NOAA

ROCKPORT ARANSAS COUNTY AIRPORT , TX, United States (KRKP) 28-05N 97-03W 6M
Jul 26, 2021 - 09:53 AM EDT / 2021.07.26 1353 UTC
Wind: from the S (170 degrees) at 7 MPH (6 KT):0
Visibility: 10 mile(s):0
Sky conditions: mostly clear
Temperature: 86.0 F (30.0 C)
Heat index: 96.8 F (36.0 C):1
Dew Point: 77.0 F (25.0 C)
Relative Humidity: 74%
Pressure (altimeter): 29.96 in. Hg (1014 hPa)
ob: KRKP 261353Z AUTO 17006KT 10SM FEW018 30/25 A2996 RMK AO2 SLP147 T03000250
cycle: 14

Station Type Date Time Source
KRKP TAF UTC NOAA

Error!

Example: see airport list